Time;durP1;ratioP1;P1;durP2;ratioP2;P2;SDS_P1;SDS_P2;PMS_P1;PMS_P2;Temp;Humidity;BMP_temperature;BMP_pressure;BME280_temperature;BME280_humidity;BME280_pressure;Samples;Min_cycle;Max_cycle;Signal;HPM_P1;HPM_P2
2023/12/09 00:01:15;;;;;;;69.57;25.60;;;-3.80;99.90;;;;;;5072197;28;20095;-75
2023/12/09 00:03:41;;;;;;;62.92;24.98;;;-3.80;99.90;;;;;;5072438;28;20024;-75
2023/12/09 00:06:07;;;;;;;62.42;24.58;;;-3.80;99.90;;;;;;5072359;28;20036;-79
2023/12/09 00:08:32;;;;;;;65.53;26.73;;;-3.80;99.90;;;;;;5071048;28;20421;-79
2023/12/09 00:10:58;;;;;;;49.03;23.17;;;-3.80;99.90;;;;;;5070842;28;20051;-79
2023/12/09 00:13:24;;;;;;;59.05;24.02;;;-3.70;99.90;;;;;;5071015;28;20020;-75
2023/12/09 00:15:49;;;;;;;59.88;24.92;;;-3.70;99.90;;;;;;5072217;28;20039;-79
2023/12/09 00:18:15;;;;;;;52.47;24.02;;;-3.60;99.90;;;;;;5070948;28;20478;-79
2023/12/09 00:20:41;;;;;;;63.13;27.55;;;-3.60;99.90;;;;;;5073607;28;20020;-75
2023/12/09 00:23:07;;;;;;;56.53;25.27;;;-3.60;99.90;;;;;;5075110;28;20020;-75
2023/12/09 00:25:33;;;;;;;59.50;24.00;;;-3.50;99.90;;;;;;5075801;28;20020;-75
2023/12/09 00:27:59;;;;;;;66.60;25.10;;;-3.50;99.90;;;;;;5074799;28;20024;-79
2023/12/09 00:30:25;;;;;;;62.40;24.40;;;-3.60;99.90;;;;;;5075618;28;20435;-75
2023/12/09 00:32:51;;;;;;;59.70;24.60;;;-3.60;99.90;;;;;;5074476;28;20067;-75
2023/12/09 00:35:17;;;;;;;54.90;24.58;;;-3.60;99.90;;;;;;5075615;28;20025;-75
2023/12/09 00:37:43;;;;;;;63.72;26.13;;;-3.60;99.90;;;;;;5075917;28;20095;-79
2023/12/09 00:40:09;;;;;;;58.53;23.95;;;-3.60;99.90;;;;;;5075676;28;20029;-79
2023/12/09 00:42:35;;;;;;;57.13;23.00;;;-3.60;99.90;;;;;;5074408;28;20066;-79
2023/12/09 00:45:01;;;;;;;62.75;23.92;;;-3.70;99.90;;;;;;5075702;28;20473;-79
2023/12/09 00:47:26;;;;;;;67.38;24.52;;;-3.70;99.90;;;;;;5075525;28;20031;-75
2023/12/09 00:49:52;;;;;;;58.38;23.95;;;-3.70;99.90;;;;;;5074280;28;20127;-79
2023/12/09 00:52:18;;;;;;;59.55;25.80;;;-3.70;99.90;;;;;;5075533;28;20024;-75
2023/12/09 00:54:43;;;;;;;66.13;27.23;;;-3.70;99.90;;;;;;5075632;28;20100;-75
2023/12/09 00:57:09;;;;;;;65.47;24.98;;;-3.70;99.90;;;;;;5074419;28;20017;-79
2023/12/09 00:59:35;;;;;;;70.10;26.17;;;-3.70;99.90;;;;;;5075168;28;20030;-75
2023/12/09 01:02:00;;;;;;;73.72;27.83;;;-3.70;99.90;;;;;;5074326;28;20017;-75
2023/12/09 01:04:26;;;;;;;60.15;24.92;;;-3.70;99.90;;;;;;5074997;28;20021;-75
2023/12/09 01:06:51;;;;;;;61.70;25.67;;;-3.70;99.90;;;;;;5075497;28;20024;-79
2023/12/09 01:09:17;;;;;;;61.35;24.17;;;-3.70;99.90;;;;;;5074910;28;20040;-79
2023/12/09 01:11:43;;;;;;;67.90;25.30;;;-3.70;99.90;;;;;;5075157;28;20016;-79
2023/12/09 01:14:09;;;;;;;77.90;26.48;;;-3.70;99.90;;;;;;5073964;28;20021;-74
2023/12/09 01:16:34;;;;;;;62.22;27.63;;;-3.70;99.90;;;;;;5074951;28;20351;-75
2023/12/09 01:19:00;;;;;;;67.63;27.08;;;-3.80;99.90;;;;;;5073713;28;20020;-75
2023/12/09 01:21:26;;;;;;;75.05;25.30;;;-3.80;99.90;;;;;;5073717;28;20028;-79
2023/12/09 01:23:51;;;;;;;81.20;28.08;;;-3.80;99.90;;;;;;5073711;28;20020;-79
2023/12/09 01:26:17;;;;;;;80.97;28.73;;;-3.80;99.90;;;;;;5072989;28;20103;-75
2023/12/09 01:28:44;;;;;;;68.85;27.02;;;-3.80;99.90;;;;;;5074787;28;20032;-79
2023/12/09 01:31:09;;;;;;;72.43;27.13;;;-3.80;99.90;;;;;;5074641;28;20047;-80
2023/12/09 01:33:36;;;;;;;67.68;24.52;;;-3.90;99.90;;;;;;5073773;28;20497;-75
2023/12/09 01:36:02;;;;;;;67.85;25.67;;;-3.90;99.90;;;;;;5074819;28;20032;-79
2023/12/09 01:38:27;;;;;;;70.13;29.55;;;-3.90;99.90;;;;;;5074914;28;20531;-75
2023/12/09 01:40:54;;;;;;;66.28;26.77;;;-3.90;99.90;;;;;;5073587;28;20055;-75
2023/12/09 01:43:20;;;;;;;69.53;27.88;;;-3.90;99.90;;;;;;5074518;28;20074;-79
2023/12/09 01:45:47;;;;;;;62.00;23.88;;;-4.00;99.90;;;;;;5073507;28;20059;-75
2023/12/09 01:48:13;;;;;;;73.82;26.40;;;-4.00;99.90;;;;;;5072980;28;20390;-75
2023/12/09 01:50:39;;;;;;;79.43;27.17;;;-4.00;99.90;;;;;;5073355;28;20032;-75
2023/12/09 01:53:06;;;;;;;79.45;28.08;;;-4.00;99.90;;;;;;5073171;28;20023;-80
2023/12/09 01:55:32;;;;;;;73.43;28.02;;;-4.00;99.90;;;;;;5074567;28;20028;-76
2023/12/09 01:57:58;;;;;;;77.78;28.95;;;-4.00;99.90;;;;;;5072899;28;20024;-79
2023/12/09 02:00:24;;;;;;;92.63;31.52;;;-4.00;99.90;;;;;;5074285;28;20024;-79
2023/12/09 02:02:50;;;;;;;87.30;30.15;;;-4.00;99.90;;;;;;5074567;28;20023;-79
2023/12/09 02:05:16;;;;;;;84.70;30.33;;;-4.00;99.90;;;;;;5074231;28;20103;-76
2023/12/09 02:07:41;;;;;;;85.95;30.70;;;-4.10;99.90;;;;;;5072995;28;20458;-75
2023/12/09 02:10:07;;;;;;;81.93;30.02;;;-4.10;99.90;;;;;;5074084;28;20036;-79
2023/12/09 02:12:48;;;;;;;95.15;33.28;;;-4.10;99.90;;;;;;5072788;28;20044;-75
2023/12/09 02:15:18;;;;;;;90.03;31.27;;;-4.10;99.90;;;;;;5061045;28;20020;-79
2023/12/09 02:18:00;;;;;;;79.50;28.77;;;-4.10;99.90;;;;;;5072611;28;20489;-76
2023/12/09 02:20:27;;;;;;;83.72;29.23;;;-4.10;99.90;;;;;;5072804;28;20028;-79
2023/12/09 02:23:12;;;;;;;76.18;29.27;;;-4.20;99.90;;;;;;5073635;28;20027;-79
2023/12/09 02:25:38;;;;;;;77.72;29.80;;;-4.20;99.90;;;;;;5073704;28;20108;-79
2023/12/09 02:28:26;;;;;;;87.20;29.63;;;-4.20;99.90;;;;;;5073907;28;20009;-79
2023/12/09 02:30:54;;;;;;;81.15;29.90;;;-4.20;99.90;;;;;;5073792;28;20112;-79
2023/12/09 02:33:22;;;;;;;90.93;29.88;;;-4.20;99.90;;;;;;5073681;28;20053;-76
2023/12/09 02:35:50;;;;;;;89.80;32.00;;;-4.30;99.90;;;;;;5072101;28;20024;-79
2023/12/09 02:38:18;;;;;;;78.07;31.45;;;-4.30;99.90;;;;;;5072424;28;20024;-79
2023/12/09 02:40:45;;;;;;;77.30;30.42;;;-4.30;99.90;;;;;;5067970;28;20024;-79
2023/12/09 02:43:12;;;;;;;77.55;29.42;;;-4.30;99.90;;;;;;5073500;28;20021;-79
2023/12/09 02:45:38;;;;;;;87.38;31.40;;;-4.30;99.90;;;;;;5073493;28;20103;-79
2023/12/09 02:48:04;;;;;;;88.40;32.00;;;-4.30;99.90;;;;;;5066969;28;20521;-75
2023/12/09 02:50:30;;;;;;;87.38;30.52;;;-4.30;99.90;;;;;;5069067;28;20102;-75
2023/12/09 02:52:56;;;;;;;77.40;29.63;;;-4.40;99.90;;;;;;5073340;28;20017;-79
2023/12/09 02:55:21;;;;;;;86.10;27.77;;;-4.40;99.90;;;;;;5073396;28;20021;-79
2023/12/09 02:57:47;;;;;;;86.85;32.10;;;-4.40;99.90;;;;;;5073106;28;20386;-75
2023/12/09 03:00:13;;;;;;;81.15;30.92;;;-4.50;99.90;;;;;;5073249;28;20100;-79
2023/12/09 03:02:39;;;;;;;69.53;27.10;;;-4.50;99.90;;;;;;5073105;28;20107;-79
2023/12/09 03:05:05;;;;;;;78.05;29.08;;;-4.60;99.90;;;;;;5071640;28;20446;-75
2023/12/09 03:07:31;;;;;;;80.97;28.98;;;-4.60;99.90;;;;;;5071492;28;20497;-75
2023/12/09 03:09:57;;;;;;;88.00;30.38;;;-4.60;99.90;;;;;;5071695;28;20021;-75
2023/12/09 03:12:22;;;;;;;89.45;30.75;;;-4.60;99.90;;;;;;5070316;28;20027;-75
2023/12/09 03:14:48;;;;;;;91.13;37.25;;;-4.60;99.90;;;;;;5069918;28;20021;-75
2023/12/09 03:17:13;;;;;;;96.40;33.88;;;-4.60;99.90;;;;;;5072845;28;20032;-75
2023/12/09 03:19:39;;;;;;;84.65;32.33;;;-4.60;99.90;;;;;;5071558;28;20013;-79
2023/12/09 03:22:05;;;;;;;83.10;32.22;;;-4.60;99.90;;;;;;5072965;28;20091;-75
2023/12/09 03:24:31;;;;;;;79.00;27.02;;;-4.70;99.90;;;;;;5071458;28;20506;-79
2023/12/09 03:26:56;;;;;;;65.85;27.15;;;-4.60;99.90;;;;;;5071594;28;20043;-79
2023/12/09 03:29:22;;;;;;;84.25;30.73;;;-4.70;99.90;;;;;;5072609;28;20059;-75
2023/12/09 03:31:48;;;;;;;74.10;29.23;;;-4.60;99.90;;;;;;5071322;28;20024;-75
2023/12/09 03:34:15;;;;;;;79.53;31.52;;;-4.60;99.90;;;;;;5072605;28;20048;-79
2023/12/09 03:36:41;;;;;;;84.75;31.75;;;-4.70;99.90;;;;;;5072645;28;20024;-79
2023/12/09 03:39:07;;;;;;;74.82;30.33;;;-4.60;99.90;;;;;;5072417;28;20028;-75
2023/12/09 03:41:33;;;;;;;78.03;30.85;;;-4.60;99.90;;;;;;5071260;28;20516;-79
2023/12/09 03:43:59;;;;;;;85.40;32.33;;;-4.60;99.90;;;;;;5072408;28;20021;-79
2023/12/09 03:46:25;;;;;;;78.15;31.27;;;-4.70;99.90;;;;;;5072560;28;20025;-75
2023/12/09 03:48:50;;;;;;;83.88;31.55;;;-4.70;99.90;;;;;;5072350;28;20024;-75
2023/12/09 03:51:16;;;;;;;78.22;36.13;;;-4.60;99.90;;;;;;5072692;28;20025;-76
2023/12/09 03:53:42;;;;;;;77.43;30.13;;;-4.60;99.90;;;;;;5070295;28;20020;-79
2023/12/09 03:56:11;;;;;;;67.13;30.60;;;-4.60;99.90;;;;;;5077146;28;20025;-76
2023/12/09 03:58:37;;;;;;;66.07;28.10;;;-4.60;99.90;;;;;;5079024;28;20032;-79
2023/12/09 04:01:03;;;;;;;75.30;28.90;;;-4.50;99.90;;;;;;5078060;28;20020;-75
2023/12/09 04:03:28;;;;;;;69.80;29.17;;;-4.50;99.90;;;;;;5077514;28;20012;-76
2023/12/09 04:05:54;;;;;;;68.13;31.92;;;-4.50;99.90;;;;;;5077804;28;20385;-79
2023/12/09 04:08:20;;;;;;;74.45;29.90;;;-4.50;99.90;;;;;;5078754;28;20012;-76
2023/12/09 04:10:46;;;;;;;72.30;29.08;;;-4.40;99.90;;;;;;5077920;28;20106;-76
2023/12/09 04:13:12;;;;;;;72.20;30.83;;;-4.40;99.90;;;;;;5077641;28;20482;-75
2023/12/09 04:15:38;;;;;;;71.32;29.55;;;-4.40;99.90;;;;;;5077813;28;20081;-75
2023/12/09 04:18:05;;;;;;;83.63;30.75;;;-4.40;99.90;;;;;;5077494;28;20470;-79
2023/12/09 04:20:31;;;;;;;71.07;31.40;;;-4.40;99.90;;;;;;5078919;28;20048;-75
2023/12/09 04:22:57;;;;;;;71.90;32.00;;;-4.40;99.90;;;;;;5078844;28;20162;-75
2023/12/09 04:25:24;;;;;;;70.20;30.95;;;-4.40;99.90;;;;;;5079055;28;20020;-79
2023/12/09 04:27:50;;;;;;;74.53;28.00;;;-4.50;99.90;;;;;;5077582;28;20021;-76
2023/12/09 04:30:16;;;;;;;79.90;31.52;;;-4.40;99.90;;;;;;5078940;28;20033;-79
2023/12/09 04:32:42;;;;;;;77.47;29.77;;;-4.40;99.90;;;;;;5078733;28;20493;-79
2023/12/09 04:35:08;;;;;;;68.90;27.90;;;-4.40;99.90;;;;;;5078945;28;20025;-76
2023/12/09 04:37:34;;;;;;;65.78;31.23;;;-4.40;99.90;;;;;;5078750;28;20016;-75
2023/12/09 04:40:00;;;;;;;65.50;28.40;;;-4.30;99.90;;;;;;5077748;28;20056;-75
2023/12/09 04:42:31;;;;;;;68.05;28.67;;;-4.30;99.90;;;;;;5077833;28;20436;-75
2023/12/09 04:44:56;;;;;;;71.82;29.08;;;-4.30;99.90;;;;;;5077593;28;20020;-78
2023/12/09 04:47:22;;;;;;;66.38;27.35;;;-4.30;99.90;;;;;;5077417;28;20501;-78
2023/12/09 04:49:48;;;;;;;55.90;27.35;;;-4.40;99.90;;;;;;5077528;28;20032;-76
2023/12/09 04:52:13;;;;;;;62.97;28.25;;;-4.30;99.90;;;;;;5077158;28;20020;-75
2023/12/09 04:54:39;;;;;;;63.17;26.92;;;-4.30;99.90;;;;;;5077580;28;20448;-75
2023/12/09 04:57:05;;;;;;;68.95;29.80;;;-4.30;99.90;;;;;;5077307;28;20096;-79
2023/12/09 04:59:30;;;;;;;74.55;27.38;;;-4.30;99.90;;;;;;5078724;28;20021;-75
2023/12/09 05:01:56;;;;;;;62.97;26.83;;;-4.30;99.90;;;;;;5078372;28;20043;-79
2023/12/09 05:04:22;;;;;;;63.40;28.50;;;-4.30;99.90;;;;;;5078660;28;20103;-75
2023/12/09 05:06:48;;;;;;;62.33;27.48;;;-4.30;99.90;;;;;;5075909;28;20432;-79
2023/12/09 05:09:14;;;;;;;64.32;26.40;;;-4.30;99.90;;;;;;5075459;28;20040;-79
2023/12/09 05:11:39;;;;;;;57.97;27.83;;;-4.30;99.90;;;;;;5080706;28;20028;-75
2023/12/09 05:14:05;;;;;;;77.05;29.75;;;-4.20;99.90;;;;;;5075442;28;20017;-79
2023/12/09 05:16:32;;;;;;;76.22;32.65;;;-4.20;99.90;;;;;;5073798;28;20479;-79
2023/12/09 05:18:57;;;;;;;74.28;30.40;;;-4.20;99.90;;;;;;5074179;28;20482;-79
2023/12/09 05:21:23;;;;;;;63.08;28.52;;;-4.20;99.90;;;;;;5075006;28;20024;-79
2023/12/09 05:23:49;;;;;;;64.40;25.35;;;-4.20;99.90;;;;;;5075407;28;20492;-79
2023/12/09 05:26:22;;;;;;;68.72;28.77;;;-4.10;99.90;;;;;;5074390;28;20477;-79
2023/12/09 05:28:48;;;;;;;61.30;26.73;;;-4.00;99.90;;;;;;5073909;28;20029;-75
2023/12/09 05:31:14;;;;;;;67.85;27.58;;;-4.00;99.90;;;;;;5073754;28;20397;-79
2023/12/09 05:33:43;;;;;;;68.10;29.88;;;-3.90;99.90;;;;;;5075133;28;20048;-75
2023/12/09 05:36:09;;;;;;;76.70;30.55;;;-4.00;99.90;;;;;;5073294;28;20021;-76
2023/12/09 05:38:35;;;;;;;68.45;28.52;;;-3.90;99.90;;;;;;5075014;28;20028;-79
2023/12/09 05:41:01;;;;;;;84.18;36.13;;;-3.90;99.90;;;;;;5074690;28;20017;-79
2023/12/09 05:43:27;;;;;;;74.63;35.53;;;-4.00;99.90;;;;;;5074728;28;20478;-75
2023/12/09 05:45:53;;;;;;;89.47;39.45;;;-4.00;99.90;;;;;;5074506;28;20024;-78
2023/12/09 05:48:20;;;;;;;81.30;31.92;;;-4.00;99.90;;;;;;5074085;28;20043;-79
2023/12/09 05:50:45;;;;;;;72.03;32.90;;;-4.00;99.90;;;;;;5072870;28;20082;-79
2023/12/09 05:53:11;;;;;;;79.47;32.95;;;-4.00;99.90;;;;;;5074190;28;20024;-76
2023/12/09 05:55:36;;;;;;;76.82;31.25;;;-4.00;99.90;;;;;;5072466;28;20498;-79
2023/12/09 05:58:02;;;;;;;73.05;30.58;;;-4.00;99.90;;;;;;5072970;28;20024;-75
2023/12/09 06:00:28;;;;;;;65.40;28.65;;;-3.90;99.90;;;;;;5074140;28;20027;-78
2023/12/09 06:02:54;;;;;;;67.25;29.27;;;-3.90;99.90;;;;;;5074529;28;20029;-78
2023/12/09 06:05:20;;;;;;;83.53;35.13;;;-3.90;99.90;;;;;;5073595;28;20047;-79
2023/12/09 06:07:46;;;;;;;72.28;31.17;;;-3.90;99.90;;;;;;5072952;28;20017;-78
2023/12/09 06:10:12;;;;;;;78.95;32.92;;;-3.90;99.90;;;;;;5073350;28;20446;-79
2023/12/09 06:12:37;;;;;;;78.55;34.92;;;-4.00;99.90;;;;;;5072557;28;20026;-79
2023/12/09 06:15:04;;;;;;;77.30;34.78;;;-4.00;99.90;;;;;;5072355;28;20390;-79
2023/12/09 06:17:30;;;;;;;88.30;38.08;;;-4.00;99.90;;;;;;5073290;28;20025;-79
2023/12/09 06:19:56;;;;;;;80.32;35.85;;;-4.00;99.90;;;;;;5072206;28;20024;-79
2023/12/09 06:22:21;;;;;;;80.22;33.50;;;-4.00;99.90;;;;;;5073794;28;20027;-79
2023/12/09 06:24:51;;;;;;;89.03;35.35;;;-4.00;99.90;;;;;;5072282;28;20016;-79
2023/12/09 06:27:17;;;;;;;91.75;37.17;;;-4.00;99.90;;;;;;5073093;28;20067;-76
2023/12/09 06:29:45;;;;;;;98.10;40.38;;;-4.00;99.90;;;;;;5073038;28;20396;-76
2023/12/09 06:32:11;;;;;;;112.07;41.80;;;-4.00;99.90;;;;;;5071771;28;20087;-76
2023/12/09 06:34:36;;;;;;;97.85;42.47;;;-4.10;99.90;;;;;;5072136;28;20028;-76
2023/12/09 06:37:02;;;;;;;88.28;38.55;;;-4.00;99.90;;;;;;5073635;28;20028;-76
2023/12/09 06:39:28;;;;;;;89.13;36.50;;;-3.90;99.90;;;;;;5071892;28;20462;-75
2023/12/09 06:41:54;;;;;;;80.70;34.78;;;-3.90;99.90;;;;;;5072930;28;20016;-76
2023/12/09 06:44:19;;;;;;;93.35;35.60;;;-3.90;99.90;;;;;;5073123;28;20074;-76
2023/12/09 06:46:45;;;;;;;83.68;35.47;;;-3.90;99.90;;;;;;5073439;28;20032;-75
2023/12/09 06:49:11;;;;;;;87.40;35.25;;;-3.90;99.90;;;;;;5071709;28;20029;-78
2023/12/09 06:51:40;;;;;;;79.07;33.63;;;-4.00;99.90;;;;;;5071722;28;20162;-79
2023/12/09 06:54:06;;;;;;;79.47;33.38;;;-4.00;99.90;;;;;;5071450;28;20032;-79
2023/12/09 06:56:32;;;;;;;75.72;34.10;;;-4.00;99.90;;;;;;5073179;28;20028;-79
2023/12/09 06:58:58;;;;;;;78.35;31.08;;;-4.00;99.90;;;;;;5072756;28;20021;-79
2023/12/09 07:01:25;;;;;;;67.10;30.38;;;-4.10;99.90;;;;;;5073197;28;20024;-79
2023/12/09 07:03:50;;;;;;;74.45;33.22;;;-4.10;99.90;;;;;;5072688;28;20025;-79
2023/12/09 07:06:25;;;;;;;72.82;30.80;;;-4.10;99.90;;;;;;5072784;28;20024;-79
2023/12/09 07:08:51;;;;;;;65.90;29.10;;;-4.00;99.90;;;;;;5072970;28;20023;-79
2023/12/09 07:11:18;;;;;;;70.28;30.95;;;-4.00;99.90;;;;;;5072595;28;20033;-79
2023/12/09 07:13:44;;;;;;;76.32;32.72;;;-4.00;99.90;;;;;;5070047;28;20031;-80
2023/12/09 07:16:10;;;;;;;85.32;33.60;;;-4.00;99.90;;;;;;5071213;28;20012;-80
2023/12/09 07:18:58;;;;;;;69.97;29.75;;;-4.00;99.90;;;;;;5072509;28;20386;-80
2023/12/09 07:21:26;;;;;;;69.15;29.13;;;-3.90;99.90;;;;;;5071910;28;20029;-80
2023/12/09 07:23:53;;;;;;;76.68;31.23;;;-3.90;99.90;;;;;;5071215;28;20020;-80
2023/12/09 07:26:19;;;;;;;70.93;31.67;;;-3.90;99.90;;;;;;5072551;28;20074;-79
2023/12/09 07:28:45;;;;;;;71.45;30.58;;;-3.80;99.90;;;;;;5072316;28;20440;-80
2023/12/09 07:31:11;;;;;;;74.88;30.35;;;-3.70;99.90;;;;;;5071651;28;20039;-80
2023/12/09 07:33:37;;;;;;;87.10;39.80;;;-3.60;99.90;;;;;;5087070;28;20505;-79
2023/12/09 07:36:02;;;;;;;92.90;42.90;;;-3.50;99.90;;;;;;5071909;28;20035;-75
2023/12/09 07:38:28;;;;;;;86.60;39.78;;;-3.40;99.90;;;;;;5070510;28;20497;-79
2023/12/09 07:40:54;;;;;;;94.97;43.50;;;-3.30;99.90;;;;;;5067860;28;20074;-79
2023/12/09 07:43:19;;;;;;;130.43;60.03;;;-3.30;99.90;;;;;;5072110;28;20021;-75
2023/12/09 07:45:45;;;;;;;107.75;47.70;;;-3.20;99.90;;;;;;5070959;28;20016;-79
2023/12/09 07:48:10;;;;;;;100.00;43.22;;;-3.10;99.90;;;;;;5070657;28;20111;-79
2023/12/09 07:50:36;;;;;;;86.20;35.20;;;-3.00;99.90;;;;;;5072383;28;20081;-79
2023/12/09 07:53:02;;;;;;;77.07;34.60;;;-3.00;99.90;;;;;;5069748;28;20027;-79
2023/12/09 07:55:28;;;;;;;92.53;41.40;;;-2.80;99.90;;;;;;5070884;28;20505;-80
2023/12/09 07:57:54;;;;;;;159.13;66.93;;;-2.80;99.90;;;;;;5072584;28;20110;-79
2023/12/09 08:00:19;;;;;;;154.05;63.70;;;-2.70;99.90;;;;;;5074027;28;20020;-80
2023/12/09 08:02:45;;;;;;;140.77;67.00;;;-2.60;99.90;;;;;;5063658;28;20383;-76
2023/12/09 08:05:11;;;;;;;136.13;58.25;;;-2.60;99.90;;;;;;5064474;28;20033;-76
2023/12/09 08:07:37;;;;;;;123.80;51.63;;;-2.50;99.90;;;;;;5069336;28;20119;-76
2023/12/09 08:10:02;;;;;;;114.28;50.63;;;-2.40;99.90;;;;;;5066442;28;20118;-76
2023/12/09 08:12:28;;;;;;;108.50;48.50;;;-2.40;99.90;;;;;;5069080;28;20020;-76
2023/12/09 08:14:54;;;;;;;98.32;43.53;;;-2.30;99.90;;;;;;5066293;28;20032;-76
2023/12/09 08:17:19;;;;;;;92.18;42.83;;;-2.20;99.90;;;;;;5069353;28;20039;-76
2023/12/09 08:19:45;;;;;;;99.82;46.97;;;-2.10;99.90;;;;;;5071005;28;20052;-76
2023/12/09 08:22:12;;;;;;;97.88;45.50;;;-2.00;99.90;;;;;;5071467;28;20032;-76
2023/12/09 08:24:37;;;;;;;96.57;43.88;;;-1.90;99.90;;;;;;5070083;28;20023;-76
2023/12/09 08:27:03;;;;;;;87.88;39.10;;;-1.90;99.90;;;;;;5069622;28;20032;-76
2023/12/09 08:29:29;;;;;;;97.22;41.17;;;-1.80;99.90;;;;;;5071137;28;20032;-76
2023/12/09 08:31:56;;;;;;;76.53;38.33;;;-1.70;99.90;;;;;;5069310;28;20032;-76
2023/12/09 08:34:22;;;;;;;81.18;38.35;;;-1.60;99.90;;;;;;5071085;28;20046;-76
2023/12/09 08:36:48;;;;;;;88.28;41.42;;;-1.50;99.90;;;;;;5071044;28;20075;-76
2023/12/09 08:39:14;;;;;;;83.30;38.40;;;-1.40;99.90;;;;;;5068859;28;20494;-81
2023/12/09 08:41:39;;;;;;;80.40;35.28;;;-1.30;99.90;;;;;;5071166;28;20040;-80
2023/12/09 08:44:06;;;;;;;77.47;33.08;;;-1.30;99.90;;;;;;5074852;28;20025;-81
2023/12/09 08:46:32;;;;;;;69.78;34.30;;;-1.20;99.90;;;;;;5074534;28;20062;-81
2023/12/09 08:48:57;;;;;;;73.10;31.75;;;-1.10;99.90;;;;;;5072933;28;20474;-81
2023/12/09 08:51:23;;;;;;;71.10;32.40;;;-1.00;99.90;;;;;;5074214;28;20055;-81
2023/12/09 08:53:50;;;;;;;65.10;29.02;;;-0.90;99.90;;;;;;5072521;28;20023;-80
2023/12/09 08:56:16;;;;;;;69.30;32.63;;;-0.90;99.90;;;;;;5074710;28;20497;-81
2023/12/09 08:58:41;;;;;;;59.88;28.98;;;-0.80;99.90;;;;;;5073058;28;20028;-75
2023/12/09 09:01:08;;;;;;;68.68;28.98;;;-0.80;99.90;;;;;;5073181;28;20063;-76
2023/12/09 09:03:33;;;;;;;58.40;27.38;;;-0.70;99.90;;;;;;5072920;28;20477;-76
2023/12/09 09:05:59;;;;;;;61.30;29.10;;;-0.60;99.90;;;;;;5072747;28;20032;-76
2023/12/09 09:08:25;;;;;;;58.03;26.05;;;-0.60;99.90;;;;;;5073177;28;20091;-77
2023/12/09 09:10:51;;;;;;;60.30;28.15;;;-0.60;99.90;;;;;;5083290;28;20507;-74
2023/12/09 09:13:16;;;;;;;58.10;28.05;;;-0.60;99.90;;;;;;5068435;28;20116;-74
2023/12/09 09:15:42;;;;;;;65.93;30.15;;;-0.60;99.90;;;;;;5071979;28;20045;-74
2023/12/09 09:18:08;;;;;;;59.60;27.83;;;-0.60;99.90;;;;;;5071260;28;20587;-75
2023/12/09 09:20:34;;;;;;;63.60;26.65;;;-0.60;99.90;;;;;;5074907;28;20023;-76
2023/12/09 09:23:00;;;;;;;58.38;27.25;;;-0.60;99.90;;;;;;5071409;28;20059;-75
2023/12/09 09:25:25;;;;;;;58.47;25.80;;;-0.50;99.90;;;;;;5069186;28;20020;-75
2023/12/09 09:27:51;;;;;;;58.63;26.17;;;-0.50;99.90;;;;;;5070984;28;20032;-75
2023/12/09 09:30:22;;;;;;;52.10;25.50;;;-0.50;99.90;;;;;;5072770;28;20093;-75
2023/12/09 09:32:47;;;;;;;58.30;25.60;;;-0.50;99.90;;;;;;5072123;28;20390;-79
2023/12/09 09:35:13;;;;;;;55.53;26.45;;;-0.40;99.90;;;;;;5076184;28;20036;-80
2023/12/09 09:37:39;;;;;;;55.45;23.95;;;-0.40;99.90;;;;;;5071253;28;20036;-80
2023/12/09 09:40:05;;;;;;;54.10;26.33;;;-0.40;99.90;;;;;;5074082;28;20028;-80
2023/12/09 09:42:41;;;;;;;56.45;25.92;;;-0.40;99.90;;;;;;5072444;28;20064;-80
2023/12/09 09:45:14;;;;;;;49.88;24.27;;;-0.40;99.90;;;;;;5071729;28;20028;-80
2023/12/09 09:47:40;;;;;;;;;;;-0.40;99.90;;;;;;5070538;28;20090;-80
2023/12/09 09:50:08;;;;;;;46.70;22.75;;;-0.50;99.90;;;;;;5069595;28;19920;-80
2023/12/09 09:52:41;;;;;;;51.65;25.02;;;-0.40;99.90;;;;;;5069165;28;20081;-80
2023/12/09 09:55:08;;;;;;;50.33;23.27;;;-0.40;99.90;;;;;;5072631;28;20036;-79
2023/12/09 09:57:34;;;;;;;50.58;23.88;;;-0.50;99.90;;;;;;5074818;28;20035;-78
2023/12/09 10:00:00;;;;;;;51.25;23.92;;;-0.50;99.90;;;;;;5077120;28;20020;-78
2023/12/09 10:02:27;;;;;;;49.75;23.98;;;-0.40;99.90;;;;;;5070774;28;20486;-78
2023/12/09 10:04:53;;;;;;;47.30;25.02;;;-0.40;99.90;;;;;;5071997;28;20031;-78
2023/12/09 10:07:20;;;;;;;54.78;25.38;;;-0.40;99.90;;;;;;5071149;28;20239;-78
2023/12/09 10:09:46;;;;;;;49.22;24.63;;;-0.30;99.90;;;;;;5068349;28;20086;-79
2023/12/09 10:12:12;;;;;;;46.15;23.30;;;-0.30;99.90;;;;;;5072331;28;20033;-78
2023/12/09 10:14:38;;;;;;;45.75;23.95;;;-0.40;99.90;;;;;;5072398;28;20033;-79
2023/12/09 10:17:05;;;;;;;52.60;26.85;;;-0.40;99.90;;;;;;5070598;28;20123;-79
2023/12/09 10:19:33;;;;;;;64.25;29.38;;;-0.40;99.90;;;;;;5071208;28;20504;-79
2023/12/09 10:21:58;;;;;;;73.35;32.72;;;-0.40;99.90;;;;;;5070683;28;20459;-79
2023/12/09 10:24:24;;;;;;;92.00;43.08;;;-0.30;99.90;;;;;;5071752;28;20107;-79
2023/12/09 10:26:50;;;;;;;78.22;32.50;;;-0.40;99.90;;;;;;5070938;28;20079;-79
2023/12/09 10:29:16;;;;;;;52.90;27.38;;;-0.30;99.90;;;;;;5070913;28;20027;-79
2023/12/09 10:31:42;;;;;;;63.35;29.50;;;-0.30;99.90;;;;;;5070143;28;20504;-79
2023/12/09 10:34:11;;;;;;;61.28;28.60;;;-0.30;99.90;;;;;;5071054;28;20032;-79
2023/12/09 10:36:36;;;;;;;60.58;27.05;;;-0.30;99.90;;;;;;5070723;28;20884;-79
2023/12/09 10:39:05;;;;;;;55.17;26.65;;;-0.30;99.90;;;;;;5071910;28;20099;-79
2023/12/09 10:41:30;;;;;;;58.65;28.40;;;-0.40;99.90;;;;;;5071477;28;20045;-79
2023/12/09 10:43:56;;;;;;;55.10;26.52;;;-0.40;99.90;;;;;;5071699;28;20028;-78
2023/12/09 10:46:22;;;;;;;53.38;27.30;;;-0.30;99.90;;;;;;5072571;28;20054;-79
2023/12/09 10:48:48;;;;;;;53.78;26.60;;;-0.40;99.90;;;;;;5072261;28;20028;-78
2023/12/09 10:51:13;;;;;;;52.78;27.88;;;-0.40;99.90;;;;;;5071184;28;20048;-78
2023/12/09 10:53:41;;;;;;;54.13;28.10;;;-0.40;99.90;;;;;;5068941;28;20059;-79
2023/12/09 10:56:07;;;;;;;52.95;26.55;;;-0.40;99.90;;;;;;5068677;28;20037;-79
2023/12/09 10:58:34;;;;;;;49.22;25.45;;;-0.40;99.90;;;;;;5070475;28;20024;-78
2023/12/09 11:01:01;;;;;;;53.63;27.08;;;-0.40;99.90;;;;;;5070311;28;20012;-79
2023/12/09 11:03:28;;;;;;;62.80;29.75;;;-0.40;99.90;;;;;;5068801;28;20048;-79
2023/12/09 11:05:57;;;;;;;60.78;29.45;;;-0.30;99.90;;;;;;5069246;28;20035;-78
2023/12/09 11:08:28;;;;;;;84.63;35.47;;;-0.30;99.90;;;;;;5071182;28;20029;-79
2023/12/09 11:10:58;;;;;;;417.73;137.00;;;-0.30;99.90;;;;;;5074111;28;20028;-79
2023/12/09 11:13:25;;;;;;;112.20;48.15;;;-0.30;99.90;;;;;;5070611;28;20013;-79
2023/12/09 11:16:23;;;;;;;125.15;54.20;;;-0.40;99.90;;;;;;5069160;28;20016;-79
2023/12/09 11:18:52;;;;;;;412.85;185.52;;;-0.40;99.90;;;;;;5058095;28;20028;-79
2023/12/09 11:21:19;;;;;;;213.63;119.03;;;-0.30;99.90;;;;;;5064792;28;20035;-78
2023/12/09 11:23:53;;;;;;;175.60;104.22;;;-0.40;99.90;;;;;;5069473;28;20478;-79
2023/12/09 11:26:26;;;;;;;93.05;48.30;;;-0.40;99.90;;;;;;5070951;28;20024;-79
2023/12/09 11:29:04;;;;;;;93.30;51.65;;;-0.40;99.90;;;;;;5072537;28;20012;-79
2023/12/09 11:31:46;;;;;;;77.90;39.10;;;-0.40;99.90;;;;;;5071084;28;20051;-79
2023/12/09 11:34:23;;;;;;;70.07;34.13;;;-0.40;99.90;;;;;;5062717;28;20047;-79
2023/12/09 11:36:52;;;;;;;63.47;30.75;;;-0.40;99.90;;;;;;5072617;28;20013;-79
2023/12/09 11:39:20;;;;;;;63.63;28.92;;;-0.40;99.90;;;;;;5072196;28;20028;-79
2023/12/09 11:41:48;;;;;;;65.10;30.88;;;-0.40;99.90;;;;;;5071128;28;20035;-79
2023/12/09 11:44:14;;;;;;;64.45;31.02;;;-0.40;99.90;;;;;;5072095;28;20024;-78
2023/12/09 11:46:40;;;;;;;63.92;30.77;;;-0.40;99.90;;;;;;5072369;28;20111;-79
2023/12/09 11:49:07;;;;;;;63.95;30.42;;;-0.40;99.90;;;;;;5072157;28;20024;-79
2023/12/09 11:51:36;;;;;;;60.90;30.83;;;-0.40;99.90;;;;;;5072398;28;20466;-79
2023/12/09 11:54:09;;;;;;;68.07;31.98;;;-0.30;99.90;;;;;;5070668;28;20019;-79
2023/12/09 11:56:37;;;;;;;66.97;32.70;;;-0.30;99.90;;;;;;5071774;28;20028;-75
2023/12/09 11:59:05;;;;;;;69.53;33.85;;;-0.20;99.90;;;;;;5070444;28;20025;-75
2023/12/09 12:01:31;;;;;;;82.50;39.97;;;-0.30;99.90;;;;;;5072068;28;20490;-75
2023/12/09 12:03:58;;;;;;;75.80;37.13;;;-0.30;99.90;;;;;;5070228;28;20531;-75
2023/12/09 12:06:24;;;;;;;79.10;39.00;;;-0.30;99.90;;;;;;5070685;28;20390;-75
2023/12/09 12:08:54;;;;;;;69.72;35.42;;;-0.30;99.90;;;;;;5070643;28;20020;-75
2023/12/09 12:11:24;;;;;;;63.83;32.22;;;-0.30;99.90;;;;;;5071824;28;20035;-75
2023/12/09 12:13:51;;;;;;;57.85;29.30;;;-0.30;99.90;;;;;;5071876;28;20114;-75
2023/12/09 12:16:17;;;;;;;62.17;32.95;;;-0.30;99.90;;;;;;5072402;28;20025;-75
2023/12/09 12:18:47;;;;;;;67.57;30.58;;;-0.30;99.90;;;;;;5076236;28;20359;-75
2023/12/09 12:21:12;;;;;;;64.05;31.35;;;-0.30;99.90;;;;;;5075376;28;20035;-75
2023/12/09 12:23:41;;;;;;;69.22;32.70;;;-0.30;99.90;;;;;;5069800;28;20016;-75